Hooper Bay Airport Hooper Bay US
ICAO: PAHP
IATA:
Category: Medium
Scheduled Services:

Elevation: 13 ft
TransAlt. 18000 ft.

Airport Communications:
AWOS 3:135.1
CTAF:123
KENAI RDO:122.4
TWEB:115.2

PAHP Zoom In..

Runways:

(A) RW 13 length 3300 ft width 75 ft
---- / hdg 136

(B) RW 31 length 3300 ft width 75 ft
---- / hdg 316

Location; PAHP
Day. 15 / Time. 21.56 Zulu
* Altimeter: 29.93
* Temperature: 11° c. 51.8°f.
* Wind from: 240° Speed 15 kn.
Dewpoint: 08° c.
Visibility: 10 Statute Miles.
Clouds: Few 1300 ft.
Clouds: Broken 4700 ft.

PAHP 152156Z AUTO 24015KT 10SM FEW013 BKN047 11/08 A2993 RMK AO2 SLP174 T01060078


Wind From 240°
Speed 15 kn.

 
 
jpsmedia.com for Web Design worldairports.se 2018   terms of use